Великий Устюг

Карта отелей и гостиниц, располагающихся рядом с аэропортом Великий Устюг :

Великий Устюг Вологодская область 60° 47' 19.0788" N, 46° 15' 37.9188" E
Великий Устюг Вологодская область 60° 47' 19.0788" N, 46° 15' 37.9188" E
Код аэродрома ИКАО
ULWU
Код аэродрома RU
УЛВУ
Координаты
N60.78863° E046.26053°
Превышение над уровнем моря
103
Основная полоса
02/20
Курс магнитный
014,8/194,8
Длина основной ВПП
1300
Ширина основной ВПП
40
Покрытие основной ВПП
Твёрдое (асфальтобетон)
Освещение ВПП
Постоянное
Тип: 
Аэродром
Класс аэродрома: 
Принадлежность: 
ГА
Статус: 
Действующий
Сайт: 
E-mail аэродрома: 
Страна: 
Россия
Регион: 
Вологодская область
Город: 
Дополнительная информация: 
Владелец: Правительство Вологодской области. Аэропорт регионального значения. ДПРС: 545-FG/XS. Эксплуатант: АК «Северсталь», которая обслуживает рейсы на самолетах Як-40 два раза в неделю.

Найти трансфер

С помощью этой формы Вы можете найти трансфер из аэропорта Великий Устюг в город, аэропорт или вокзал:

Карта места

Javascript is required to view this map.

Погода в аэропортах:

Авиационная погода в Нижнем Новгороде

Регион: 
Погода METAR: 
UWGG 241700Z 31006MPS 9999 -SHRA OVC010CB 02/01 Q1011 R36R/290050 NOSIG
Время наблюдения
2021-10-24T17:00:00Z
Температура C
2.0
Точка росы
1.0
Направление ветра
310
Скорость ветра (узлы)
12
Метео видимость
6.21
Явления погоды
-SHRA
Условия полета
MVFR
Аэропорт подробнее: 

Авиационная погода в Берлевоге

Регион: 
Погода METAR: 
ENBV 221920Z 01015KT 9999 VCSH FEW008 SCT030 BKN045 00/M06 Q1000
Время наблюдения
2021-10-22T19:20:00Z
Температура C
0.0
Точка росы
-6.0
Направление ветра
10
Скорость ветра (узлы)
15
Метео видимость
6.21
Явления погоды
VCSH
Условия полета
VFR

Авиационная погода в Самсуне

Регион: 
Погода METAR: 
LTFH 241650Z 35016G26KT 8000 -SHRA SCT010 BKN028 BKN080 14/11 Q1024 NOSIG
Время наблюдения
2021-10-24T16:50:00Z
Температура C
14.0
Точка росы
11.0
Направление ветра
350
Скорость ветра (узлы)
16
Метео видимость
4.97
Явления погоды
-SHRA
Условия полета
MVFR

Авиационная погода в Воронеже

Регион: 
Погода METAR: 
UUOO 241700Z 33008MPS 9000 -SHRA BKN010 OVC///CB 03/01 Q1020 R30/290155 NOSIG RMK QFE752
Время наблюдения
2021-10-24T17:00:00Z
Температура C
3.0
Точка росы
1.0
Направление ветра
330
Скорость ветра (узлы)
16
Метео видимость
5.59
Явления погоды
-SHRA
Условия полета
MVFR
Аэропорт подробнее: